sensor_id;sensor_type;location;lat;lon;timestamp;P1;durP1;ratioP1;P2;durP2;ratioP2
76852;SDS011;65825;52.232;10.566;2023-03-04T00:00:02;20.98;;;7.57;;
76852;SDS011;65825;52.232;10.566;2023-03-04T00:02:29;23.30;;;7.25;;
76852;SDS011;65825;52.232;10.566;2023-03-04T00:04:54;23.33;;;7.90;;
76852;SDS011;65825;52.232;10.566;2023-03-04T00:07:19;20.67;;;8.10;;
76852;SDS011;65825;52.232;10.566;2023-03-04T00:09:45;22.67;;;8.40;;
76852;SDS011;65825;52.232;10.566;2023-03-04T00:12:10;21.58;;;7.43;;
76852;SDS011;65825;52.232;10.566;2023-03-04T00:14:36;26.13;;;7.93;;
76852;SDS011;65825;52.232;10.566;2023-03-04T00:17:02;20.87;;;7.00;;
76852;SDS011;65825;52.232;10.566;2023-03-04T00:19:28;21.13;;;6.95;;
76852;SDS011;65825;52.232;10.566;2023-03-04T00:21:54;21.90;;;6.55;;
76852;SDS011;65825;52.232;10.566;2023-03-04T00:24:19;22.90;;;7.13;;
76852;SDS011;65825;52.232;10.566;2023-03-04T00:26:44;18.23;;;6.00;;
76852;SDS011;65825;52.232;10.566;2023-03-04T00:29:10;23.40;;;6.47;;
76852;SDS011;65825;52.232;10.566;2023-03-04T00:31:35;16.30;;;5.97;;
76852;SDS011;65825;52.232;10.566;2023-03-04T00:34:01;17.75;;;5.78;;
76852;SDS011;65825;52.232;10.566;2023-03-04T00:36:26;18.87;;;5.40;;
76852;SDS011;65825;52.232;10.566;2023-03-04T00:38:51;21.15;;;5.78;;
76852;SDS011;65825;52.232;10.566;2023-03-04T00:41:16;16.20;;;5.17;;
76852;SDS011;65825;52.232;10.566;2023-03-04T00:43:42;20.20;;;5.27;;
76852;SDS011;65825;52.232;10.566;2023-03-04T00:46:07;24.70;;;5.27;;
76852;SDS011;65825;52.232;10.566;2023-03-04T00:48:32;15.40;;;5.10;;
76852;SDS011;65825;52.232;10.566;2023-03-04T00:50:57;15.13;;;4.50;;
76852;SDS011;65825;52.232;10.566;2023-03-04T00:53:23;20.80;;;4.77;;
76852;SDS011;65825;52.232;10.566;2023-03-04T00:55:48;10.70;;;3.63;;
76852;SDS011;65825;52.232;10.566;2023-03-04T00:58:14;21.45;;;3.90;;
76852;SDS011;65825;52.232;10.566;2023-03-04T01:00:39;15.07;;;4.07;;
76852;SDS011;65825;52.232;10.566;2023-03-04T01:03:04;19.77;;;4.47;;
76852;SDS011;65825;52.232;10.566;2023-03-04T01:05:30;15.50;;;3.63;;
76852;SDS011;65825;52.232;10.566;2023-03-04T01:07:57;18.00;;;4.13;;
76852;SDS011;65825;52.232;10.566;2023-03-04T01:10:23;14.17;;;3.77;;
76852;SDS011;65825;52.232;10.566;2023-03-04T01:12:48;13.68;;;3.88;;
76852;SDS011;65825;52.232;10.566;2023-03-04T01:15:13;18.33;;;4.27;;
76852;SDS011;65825;52.232;10.566;2023-03-04T01:17:39;20.45;;;4.15;;
76852;SDS011;65825;52.232;10.566;2023-03-04T01:20:05;12.80;;;4.28;;
76852;SDS011;65825;52.232;10.566;2023-03-04T01:22:31;18.70;;;4.07;;
76852;SDS011;65825;52.232;10.566;2023-03-04T01:24:57;14.30;;;4.30;;
76852;SDS011;65825;52.232;10.566;2023-03-04T01:27:22;14.70;;;3.33;;
76852;SDS011;65825;52.232;10.566;2023-03-04T01:29:47;25.85;;;4.00;;
76852;SDS011;65825;52.232;10.566;2023-03-04T01:32:13;15.87;;;3.27;;
76852;SDS011;65825;52.232;10.566;2023-03-04T01:34:38;12.37;;;3.20;;
76852;SDS011;65825;52.232;10.566;2023-03-04T01:37:05;17.35;;;4.25;;
76852;SDS011;65825;52.232;10.566;2023-03-04T01:39:31;27.47;;;4.67;;
76852;SDS011;65825;52.232;10.566;2023-03-04T01:41:56;23.10;;;4.10;;
76852;SDS011;65825;52.232;10.566;2023-03-04T01:44:22;19.77;;;4.68;;
76852;SDS011;65825;52.232;10.566;2023-03-04T01:46:48;18.60;;;4.38;;
76852;SDS011;65825;52.232;10.566;2023-03-04T01:49:17;19.25;;;3.63;;
76852;SDS011;65825;52.232;10.566;2023-03-04T01:51:43;12.45;;;3.83;;
76852;SDS011;65825;52.232;10.566;2023-03-04T01:54:10;17.77;;;3.90;;
76852;SDS011;65825;52.232;10.566;2023-03-04T01:56:36;24.55;;;4.10;;
76852;SDS011;65825;52.232;10.566;2023-03-04T01:59:16;15.68;;;3.78;;
76852;SDS011;65825;52.232;10.566;2023-03-04T02:01:45;25.85;;;4.70;;
76852;SDS011;65825;52.232;10.566;2023-03-04T02:04:12;18.83;;;4.18;;
76852;SDS011;65825;52.232;10.566;2023-03-04T02:06:40;16.65;;;3.70;;
76852;SDS011;65825;52.232;10.566;2023-03-04T02:09:06;18.45;;;4.40;;
76852;SDS011;65825;52.232;10.566;2023-03-04T02:11:32;13.18;;;4.10;;
76852;SDS011;65825;52.232;10.566;2023-03-04T02:13:59;20.33;;;3.63;;
76852;SDS011;65825;52.232;10.566;2023-03-04T02:16:25;20.45;;;4.20;;
76852;SDS011;65825;52.232;10.566;2023-03-04T02:18:50;18.02;;;4.25;;
76852;SDS011;65825;52.232;10.566;2023-03-04T02:21:22;16.50;;;4.30;;
76852;SDS011;65825;52.232;10.566;2023-03-04T02:26:21;17.60;;;3.90;;
76852;SDS011;65825;52.232;10.566;2023-03-04T02:28:49;13.88;;;3.60;;
76852;SDS011;65825;52.232;10.566;2023-03-04T02:31:21;10.95;;;3.75;;
76852;SDS011;65825;52.232;10.566;2023-03-04T02:33:59;16.90;;;4.22;;
76852;SDS011;65825;52.232;10.566;2023-03-04T02:36:27;17.80;;;3.90;;
76852;SDS011;65825;52.232;10.566;2023-03-04T02:38:53;16.48;;;3.40;;
76852;SDS011;65825;52.232;10.566;2023-03-04T02:41:21;16.85;;;3.88;;
76852;SDS011;65825;52.232;10.566;2023-03-04T02:43:51;22.50;;;4.30;;
76852;SDS011;65825;52.232;10.566;2023-03-04T02:46:17;22.67;;;4.43;;
76852;SDS011;65825;52.232;10.566;2023-03-04T02:48:43;18.90;;;4.07;;
76852;SDS011;65825;52.232;10.566;2023-03-04T02:51:08;15.57;;;3.70;;
76852;SDS011;65825;52.232;10.566;2023-03-04T02:53:34;11.57;;;3.58;;
76852;SDS011;65825;52.232;10.566;2023-03-04T02:55:59;15.13;;;3.60;;
76852;SDS011;65825;52.232;10.566;2023-03-04T02:58:24;16.42;;;3.58;;
76852;SDS011;65825;52.232;10.566;2023-03-04T03:00:50;18.63;;;4.38;;
76852;SDS011;65825;52.232;10.566;2023-03-04T03:03:15;11.40;;;3.13;;
76852;SDS011;65825;52.232;10.566;2023-03-04T03:05:40;14.43;;;3.70;;
76852;SDS011;65825;52.232;10.566;2023-03-04T03:08:05;17.53;;;3.80;;
76852;SDS011;65825;52.232;10.566;2023-03-04T03:10:31;18.30;;;3.20;;
76852;SDS011;65825;52.232;10.566;2023-03-04T03:12:57;12.48;;;3.42;;
76852;SDS011;65825;52.232;10.566;2023-03-04T03:15:22;13.88;;;3.58;;
76852;SDS011;65825;52.232;10.566;2023-03-04T03:17:47;18.83;;;3.72;;
76852;SDS011;65825;52.232;10.566;2023-03-04T03:20:13;14.30;;;3.47;;
76852;SDS011;65825;52.232;10.566;2023-03-04T03:22:39;13.77;;;3.13;;
76852;SDS011;65825;52.232;10.566;2023-03-04T03:25:05;15.90;;;3.15;;
76852;SDS011;65825;52.232;10.566;2023-03-04T03:27:35;12.40;;;3.50;;
76852;SDS011;65825;52.232;10.566;2023-03-04T03:30:01;14.45;;;3.33;;
76852;SDS011;65825;52.232;10.566;2023-03-04T03:32:27;13.45;;;3.40;;
76852;SDS011;65825;52.232;10.566;2023-03-04T03:34:52;14.80;;;3.28;;
76852;SDS011;65825;52.232;10.566;2023-03-04T03:37:17;15.07;;;3.27;;
76852;SDS011;65825;52.232;10.566;2023-03-04T03:39:43;13.90;;;3.07;;
76852;SDS011;65825;52.232;10.566;2023-03-04T03:42:08;10.88;;;3.28;;
76852;SDS011;65825;52.232;10.566;2023-03-04T03:44:33;19.03;;;4.17;;
76852;SDS011;65825;52.232;10.566;2023-03-04T03:46:58;13.90;;;3.70;;
76852;SDS011;65825;52.232;10.566;2023-03-04T03:49:24;10.77;;;3.03;;
76852;SDS011;65825;52.232;10.566;2023-03-04T03:51:49;19.67;;;4.07;;
76852;SDS011;65825;52.232;10.566;2023-03-04T03:54:14;18.77;;;3.25;;
76852;SDS011;65825;52.232;10.566;2023-03-04T03:56:40;14.77;;;3.33;;
76852;SDS011;65825;52.232;10.566;2023-03-04T03:59:05;13.40;;;3.63;;
76852;SDS011;65825;52.232;10.566;2023-03-04T04:01:30;11.57;;;3.35;;
76852;SDS011;65825;52.232;10.566;2023-03-04T04:03:57;11.77;;;2.95;;
76852;SDS011;65825;52.232;10.566;2023-03-04T04:06:23;10.57;;;2.92;;
76852;SDS011;65825;52.232;10.566;2023-03-04T04:08:48;10.32;;;2.63;;
76852;SDS011;65825;52.232;10.566;2023-03-04T04:11:13;13.27;;;3.50;;
76852;SDS011;65825;52.232;10.566;2023-03-04T04:13:39;8.40;;;2.17;;
76852;SDS011;65825;52.232;10.566;2023-03-04T04:16:04;14.13;;;2.67;;
76852;SDS011;65825;52.232;10.566;2023-03-04T04:18:30;13.55;;;2.47;;
76852;SDS011;65825;52.232;10.566;2023-03-04T04:20:55;12.45;;;2.40;;
76852;SDS011;65825;52.232;10.566;2023-03-04T04:23:20;13.17;;;2.73;;
76852;SDS011;65825;52.232;10.566;2023-03-04T04:25:46;11.32;;;2.67;;
76852;SDS011;65825;52.232;10.566;2023-03-04T04:28:11;11.43;;;2.47;;
76852;SDS011;65825;52.232;10.566;2023-03-04T04:30:37;6.70;;;2.03;;
76852;SDS011;65825;52.232;10.566;2023-03-04T04:33:02;6.63;;;1.98;;
76852;SDS011;65825;52.232;10.566;2023-03-04T04:35:28;10.48;;;2.50;;
76852;SDS011;65825;52.232;10.566;2023-03-04T04:37:55;10.50;;;2.70;;
76852;SDS011;65825;52.232;10.566;2023-03-04T04:40:20;12.57;;;2.80;;
76852;SDS011;65825;52.232;10.566;2023-03-04T04:42:46;12.37;;;2.37;;
76852;SDS011;65825;52.232;10.566;2023-03-04T04:45:11;8.43;;;2.63;;
76852;SDS011;65825;52.232;10.566;2023-03-04T04:47:36;10.70;;;2.27;;
76852;SDS011;65825;52.232;10.566;2023-03-04T04:50:01;9.10;;;2.73;;
76852;SDS011;65825;52.232;10.566;2023-03-04T04:52:27;17.13;;;2.65;;
76852;SDS011;65825;52.232;10.566;2023-03-04T04:54:52;8.60;;;2.23;;
76852;SDS011;65825;52.232;10.566;2023-03-04T04:57:18;6.60;;;2.37;;
76852;SDS011;65825;52.232;10.566;2023-03-04T04:59:43;11.83;;;2.23;;
76852;SDS011;65825;52.232;10.566;2023-03-04T05:02:08;9.23;;;2.07;;
76852;SDS011;65825;52.232;10.566;2023-03-04T05:04:36;9.30;;;2.17;;
76852;SDS011;65825;52.232;10.566;2023-03-04T05:07:01;9.15;;;2.22;;
76852;SDS011;65825;52.232;10.566;2023-03-04T05:09:26;11.53;;;2.13;;
76852;SDS011;65825;52.232;10.566;2023-03-04T05:11:51;9.60;;;2.40;;
76852;SDS011;65825;52.232;10.566;2023-03-04T05:14:17;8.20;;;1.90;;
76852;SDS011;65825;52.232;10.566;2023-03-04T05:16:42;10.55;;;2.50;;
76852;SDS011;65825;52.232;10.566;2023-03-04T05:19:07;8.13;;;2.00;;
76852;SDS011;65825;52.232;10.566;2023-03-04T05:21:33;9.75;;;2.15;;
76852;SDS011;65825;52.232;10.566;2023-03-04T05:23:58;12.63;;;2.63;;
76852;SDS011;65825;52.232;10.566;2023-03-04T05:26:23;8.53;;;1.97;;
76852;SDS011;65825;52.232;10.566;2023-03-04T05:28:48;7.73;;;2.20;;
76852;SDS011;65825;52.232;10.566;2023-03-04T05:31:14;7.80;;;2.20;;
76852;SDS011;65825;52.232;10.566;2023-03-04T05:33:39;6.85;;;2.47;;
76852;SDS011;65825;52.232;10.566;2023-03-04T05:36:05;7.28;;;2.20;;
76852;SDS011;65825;52.232;10.566;2023-03-04T05:38:31;8.38;;;2.42;;
76852;SDS011;65825;52.232;10.566;2023-03-04T05:40:57;11.13;;;2.40;;
76852;SDS011;65825;52.232;10.566;2023-03-04T05:43:24;6.95;;;1.98;;
76852;SDS011;65825;52.232;10.566;2023-03-04T05:45:50;7.57;;;1.75;;
76852;SDS011;65825;52.232;10.566;2023-03-04T05:48:15;7.85;;;2.22;;
76852;SDS011;65825;52.232;10.566;2023-03-04T05:50:41;8.65;;;2.08;;
76852;SDS011;65825;52.232;10.566;2023-03-04T05:53:07;7.57;;;2.10;;
76852;SDS011;65825;52.232;10.566;2023-03-04T05:55:32;8.93;;;2.37;;
76852;SDS011;65825;52.232;10.566;2023-03-04T05:57:57;14.03;;;2.53;;
76852;SDS011;65825;52.232;10.566;2023-03-04T06:00:23;5.72;;;1.92;;
76852;SDS011;65825;52.232;10.566;2023-03-04T06:02:49;10.77;;;2.35;;
76852;SDS011;65825;52.232;10.566;2023-03-04T06:05:15;8.70;;;2.53;;
76852;SDS011;65825;52.232;10.566;2023-03-04T06:07:41;13.52;;;2.08;;
76852;SDS011;65825;52.232;10.566;2023-03-04T06:10:07;10.63;;;1.92;;
76852;SDS011;65825;52.232;10.566;2023-03-04T06:12:33;5.13;;;1.75;;
76852;SDS011;65825;52.232;10.566;2023-03-04T06:14:59;11.23;;;2.28;;
76852;SDS011;65825;52.232;10.566;2023-03-04T06:17:24;12.07;;;2.33;;
76852;SDS011;65825;52.232;10.566;2023-03-04T06:19:49;17.42;;;2.50;;
76852;SDS011;65825;52.232;10.566;2023-03-04T06:22:15;12.57;;;2.30;;
76852;SDS011;65825;52.232;10.566;2023-03-04T06:24:40;6.30;;;2.17;;
76852;SDS011;65825;52.232;10.566;2023-03-04T06:27:05;12.97;;;2.50;;
76852;SDS011;65825;52.232;10.566;2023-03-04T06:29:31;12.25;;;2.60;;
76852;SDS011;65825;52.232;10.566;2023-03-04T06:31:56;7.05;;;1.90;;
76852;SDS011;65825;52.232;10.566;2023-03-04T06:34:22;12.50;;;2.90;;
76852;SDS011;65825;52.232;10.566;2023-03-04T06:36:47;12.80;;;2.40;;
76852;SDS011;65825;52.232;10.566;2023-03-04T06:39:15;10.77;;;2.30;;
76852;SDS011;65825;52.232;10.566;2023-03-04T06:41:40;7.13;;;2.65;;
76852;SDS011;65825;52.232;10.566;2023-03-04T06:44:05;9.75;;;2.17;;
76852;SDS011;65825;52.232;10.566;2023-03-04T06:46:32;14.07;;;2.60;;
76852;SDS011;65825;52.232;10.566;2023-03-04T06:51:23;11.17;;;2.37;;
76852;SDS011;65825;52.232;10.566;2023-03-04T06:53:49;14.70;;;2.72;;
76852;SDS011;65825;52.232;10.566;2023-03-04T06:56:14;13.63;;;3.00;;
76852;SDS011;65825;52.232;10.566;2023-03-04T06:58:40;8.30;;;2.42;;
76852;SDS011;65825;52.232;10.566;2023-03-04T07:03:41;10.60;;;2.70;;
76852;SDS011;65825;52.232;10.566;2023-03-04T07:06:08;5.93;;;2.40;;
76852;SDS011;65825;52.232;10.566;2023-03-04T07:08:35;12.88;;;2.45;;
76852;SDS011;65825;52.232;10.566;2023-03-04T07:11:00;6.93;;;2.40;;
76852;SDS011;65825;52.232;10.566;2023-03-04T07:13:26;6.13;;;2.10;;
76852;SDS011;65825;52.232;10.566;2023-03-04T07:15:51;11.93;;;2.60;;
76852;SDS011;65825;52.232;10.566;2023-03-04T07:18:17;8.02;;;1.85;;
76852;SDS011;65825;52.232;10.566;2023-03-04T07:20:42;9.03;;;2.53;;
76852;SDS011;65825;52.232;10.566;2023-03-04T07:23:07;8.18;;;2.33;;
76852;SDS011;65825;52.232;10.566;2023-03-04T07:25:32;10.30;;;2.30;;
76852;SDS011;65825;52.232;10.566;2023-03-04T07:27:58;9.23;;;2.20;;
76852;SDS011;65825;52.232;10.566;2023-03-04T07:30:23;5.97;;;2.03;;
76852;SDS011;65825;52.232;10.566;2023-03-04T07:32:48;10.18;;;2.20;;
76852;SDS011;65825;52.232;10.566;2023-03-04T07:35:15;9.88;;;2.20;;
76852;SDS011;65825;52.232;10.566;2023-03-04T07:37:40;8.07;;;2.13;;
76852;SDS011;65825;52.232;10.566;2023-03-04T07:40:06;8.02;;;2.42;;
76852;SDS011;65825;52.232;10.566;2023-03-04T07:44:57;6.00;;;2.15;;
76852;SDS011;65825;52.232;10.566;2023-03-04T07:47:24;14.80;;;3.35;;
76852;SDS011;65825;52.232;10.566;2023-03-04T07:49:49;5.18;;;2.22;;
76852;SDS011;65825;52.232;10.566;2023-03-04T07:52:14;9.17;;;2.73;;
76852;SDS011;65825;52.232;10.566;2023-03-04T07:54:39;10.37;;;3.00;;
76852;SDS011;65825;52.232;10.566;2023-03-04T07:57:05;12.63;;;2.90;;
76852;SDS011;65825;52.232;10.566;2023-03-04T07:59:30;9.23;;;2.57;;
76852;SDS011;65825;52.232;10.566;2023-03-04T08:01:55;8.85;;;2.60;;
76852;SDS011;65825;52.232;10.566;2023-03-04T08:04:21;9.73;;;2.90;;
76852;SDS011;65825;52.232;10.566;2023-03-04T08:06:46;12.43;;;2.27;;
76852;SDS011;65825;52.232;10.566;2023-03-04T08:09:12;10.45;;;2.05;;
76852;SDS011;65825;52.232;10.566;2023-03-04T08:11:38;6.28;;;2.15;;
76852;SDS011;65825;52.232;10.566;2023-03-04T08:14:03;7.03;;;1.90;;
76852;SDS011;65825;52.232;10.566;2023-03-04T08:16:29;5.75;;;2.15;;
76852;SDS011;65825;52.232;10.566;2023-03-04T08:18:55;12.37;;;3.17;;
76852;SDS011;65825;52.232;10.566;2023-03-04T08:21:23;12.82;;;2.25;;
76852;SDS011;65825;52.232;10.566;2023-03-04T08:23:49;9.88;;;2.25;;
76852;SDS011;65825;52.232;10.566;2023-03-04T08:26:16;8.57;;;2.40;;
76852;SDS011;65825;52.232;10.566;2023-03-04T08:28:47;9.10;;;2.47;;
76852;SDS011;65825;52.232;10.566;2023-03-04T08:31:13;11.75;;;3.03;;
76852;SDS011;65825;52.232;10.566;2023-03-04T08:33:39;8.27;;;3.00;;
76852;SDS011;65825;52.232;10.566;2023-03-04T08:36:05;10.70;;;2.60;;
76852;SDS011;65825;52.232;10.566;2023-03-04T08:38:31;8.70;;;2.40;;
76852;SDS011;65825;52.232;10.566;2023-03-04T08:40:57;6.88;;;2.70;;
76852;SDS011;65825;52.232;10.566;2023-03-04T08:43:23;4.93;;;2.20;;
76852;SDS011;65825;52.232;10.566;2023-03-04T08:45:50;12.30;;;2.88;;
76852;SDS011;65825;52.232;10.566;2023-03-04T08:48:16;8.18;;;3.05;;
76852;SDS011;65825;52.232;10.566;2023-03-04T08:50:42;6.05;;;2.53;;
76852;SDS011;65825;52.232;10.566;2023-03-04T08:53:09;8.98;;;3.00;;
76852;SDS011;65825;52.232;10.566;2023-03-04T08:55:36;11.63;;;2.85;;
76852;SDS011;65825;52.232;10.566;2023-03-04T08:58:05;10.30;;;2.85;;
76852;SDS011;65825;52.232;10.566;2023-03-04T09:00:31;9.63;;;3.00;;
76852;SDS011;65825;52.232;10.566;2023-03-04T09:02:57;8.68;;;2.92;;
76852;SDS011;65825;52.232;10.566;2023-03-04T09:05:22;8.50;;;2.20;;
76852;SDS011;65825;52.232;10.566;2023-03-04T09:07:47;6.18;;;2.28;;
76852;SDS011;65825;52.232;10.566;2023-03-04T09:10:15;6.38;;;2.28;;
76852;SDS011;65825;52.232;10.566;2023-03-04T09:12:40;11.15;;;2.20;;
76852;SDS011;65825;52.232;10.566;2023-03-04T09:15:06;8.50;;;2.00;;
76852;SDS011;65825;52.232;10.566;2023-03-04T09:17:32;9.10;;;2.30;;
76852;SDS011;65825;52.232;10.566;2023-03-04T09:19:57;6.53;;;1.90;;
76852;SDS011;65825;52.232;10.566;2023-03-04T09:22:22;7.13;;;2.95;;
76852;SDS011;65825;52.232;10.566;2023-03-04T09:24:48;5.93;;;2.63;;
76852;SDS011;65825;52.232;10.566;2023-03-04T09:27:13;12.30;;;2.60;;
76852;SDS011;65825;52.232;10.566;2023-03-04T09:29:38;9.75;;;2.78;;
76852;SDS011;65825;52.232;10.566;2023-03-04T09:32:03;13.00;;;3.20;;
76852;SDS011;65825;52.232;10.566;2023-03-04T09:34:29;10.55;;;2.45;;
76852;SDS011;65825;52.232;10.566;2023-03-04T09:36:54;10.73;;;2.57;;
76852;SDS011;65825;52.232;10.566;2023-03-04T09:39:19;10.90;;;2.00;;
76852;SDS011;65825;52.232;10.566;2023-03-04T09:41:46;8.43;;;2.53;;
76852;SDS011;65825;52.232;10.566;2023-03-04T09:44:15;6.43;;;2.38;;
76852;SDS011;65825;52.232;10.566;2023-03-04T09:49:12;7.78;;;1.90;;
76852;SDS011;65825;52.232;10.566;2023-03-04T09:57:32;6.90;;;3.30;;
76852;SDS011;65825;52.232;10.566;2023-03-04T10:00:13;8.43;;;2.88;;
76852;SDS011;65825;52.232;10.566;2023-03-04T10:10:58;9.23;;;3.03;;
76852;SDS011;65825;52.232;10.566;2023-03-04T10:13:29;11.63;;;3.80;;
76852;SDS011;65825;52.232;10.566;2023-03-04T10:16:03;11.00;;;3.65;;
76852;SDS011;65825;52.232;10.566;2023-03-04T10:18:36;7.28;;;2.65;;
76852;SDS011;65825;52.232;10.566;2023-03-04T10:24:06;10.27;;;3.85;;
76852;SDS011;65825;52.232;10.566;2023-03-04T10:26:36;10.15;;;3.13;;
76852;SDS011;65825;52.232;10.566;2023-03-04T10:31:32;10.63;;;2.65;;
76852;SDS011;65825;52.232;10.566;2023-03-04T10:34:00;9.98;;;2.83;;
76852;SDS011;65825;52.232;10.566;2023-03-04T10:39:08;10.83;;;2.63;;
76852;SDS011;65825;52.232;10.566;2023-03-04T10:41:36;12.10;;;2.20;;
76852;SDS011;65825;52.232;10.566;2023-03-04T10:46:32;7.37;;;2.57;;
76852;SDS011;65825;52.232;10.566;2023-03-04T10:48:57;8.93;;;2.20;;
76852;SDS011;65825;52.232;10.566;2023-03-04T10:51:26;10.63;;;2.22;;
76852;SDS011;65825;52.232;10.566;2023-03-04T10:53:57;11.25;;;2.40;;
76852;SDS011;65825;52.232;10.566;2023-03-04T10:56:36;7.88;;;2.25;;
76852;SDS011;65825;52.232;10.566;2023-03-04T11:01:49;10.18;;;2.22;;
76852;SDS011;65825;52.232;10.566;2023-03-04T11:04:18;8.05;;;2.20;;
76852;SDS011;65825;52.232;10.566;2023-03-04T11:06:44;9.27;;;2.00;;
76852;SDS011;65825;52.232;10.566;2023-03-04T11:09:22;11.52;;;2.58;;
76852;SDS011;65825;52.232;10.566;2023-03-04T11:11:50;4.97;;;2.15;;
76852;SDS011;65825;52.232;10.566;2023-03-04T11:14:24;9.13;;;2.33;;
76852;SDS011;65825;52.232;10.566;2023-03-04T11:17:02;8.15;;;2.40;;
76852;SDS011;65825;52.232;10.566;2023-03-04T11:19:40;8.75;;;2.28;;
76852;SDS011;65825;52.232;10.566;2023-03-04T11:22:09;7.65;;;2.33;;
76852;SDS011;65825;52.232;10.566;2023-03-04T11:24:42;13.07;;;3.30;;
76852;SDS011;65825;52.232;10.566;2023-03-04T11:29:50;6.78;;;1.95;;
76852;SDS011;65825;52.232;10.566;2023-03-04T11:32:21;9.80;;;2.15;;
76852;SDS011;65825;52.232;10.566;2023-03-04T11:35:01;9.75;;;2.05;;
76852;SDS011;65825;52.232;10.566;2023-03-04T11:40:40;10.27;;;2.38;;
76852;SDS011;65825;52.232;10.566;2023-03-04T11:46:14;6.93;;;1.80;;
76852;SDS011;65825;52.232;10.566;2023-03-04T11:48:48;5.88;;;1.77;;
76852;SDS011;65825;52.232;10.566;2023-03-04T11:54:17;7.95;;;2.00;;
76852;SDS011;65825;52.232;10.566;2023-03-04T11:57:01;7.43;;;2.13;;
76852;SDS011;65825;52.232;10.566;2023-03-04T12:02:21;3.90;;;1.40;;
76852;SDS011;65825;52.232;10.566;2023-03-04T12:07:56;7.85;;;1.88;;
76852;SDS011;65825;52.232;10.566;2023-03-04T12:10:34;6.43;;;2.42;;
76852;SDS011;65825;52.232;10.566;2023-03-04T12:13:07;9.68;;;2.95;;
76852;SDS011;65825;52.232;10.566;2023-03-04T12:16:43;6.80;;;2.15;;
76852;SDS011;65825;52.232;10.566;2023-03-04T12:22:13;8.50;;;2.45;;
76852;SDS011;65825;52.232;10.566;2023-03-04T12:24:53;6.05;;;2.22;;
76852;SDS011;65825;52.232;10.566;2023-03-04T12:27:35;8.45;;;2.20;;
76852;SDS011;65825;52.232;10.566;2023-03-04T12:30:25;8.10;;;2.30;;
76852;SDS011;65825;52.232;10.566;2023-03-04T12:33:48;8.38;;;1.75;;
76852;SDS011;65825;52.232;10.566;2023-03-04T12:36:09;6.30;;;1.67;;
76852;SDS011;65825;52.232;10.566;2023-03-04T12:38:58;3.90;;;1.60;;
76852;SDS011;65825;52.232;10.566;2023-03-04T12:41:50;5.55;;;1.70;;
76852;SDS011;65825;52.232;10.566;2023-03-04T12:44:24;6.90;;;1.80;;
76852;SDS011;65825;52.232;10.566;2023-03-04T12:54:52;7.75;;;1.83;;
76852;SDS011;65825;52.232;10.566;2023-03-04T12:57:23;8.43;;;2.17;;
76852;SDS011;65825;52.232;10.566;2023-03-04T13:00:05;10.13;;;2.15;;
76852;SDS011;65825;52.232;10.566;2023-03-04T13:02:41;9.07;;;1.92;;
76852;SDS011;65825;52.232;10.566;2023-03-04T13:08:04;7.70;;;1.70;;
76852;SDS011;65825;52.232;10.566;2023-03-04T13:10:37;6.57;;;1.90;;
76852;SDS011;65825;52.232;10.566;2023-03-04T13:13:02;5.97;;;1.88;;
76852;SDS011;65825;52.232;10.566;2023-03-04T13:17:57;6.10;;;1.80;;
76852;SDS011;65825;52.232;10.566;2023-03-04T13:22:57;11.40;;;1.92;;
76852;SDS011;65825;52.232;10.566;2023-03-04T13:25:43;8.38;;;1.65;;
76852;SDS011;65825;52.232;10.566;2023-03-04T13:28:18;4.43;;;1.40;;
76852;SDS011;65825;52.232;10.566;2023-03-04T13:43:50;6.97;;;1.90;;
76852;SDS011;65825;52.232;10.566;2023-03-04T13:54:06;7.30;;;2.40;;
76852;SDS011;65825;52.232;10.566;2023-03-04T13:56:40;10.52;;;2.33;;
76852;SDS011;65825;52.232;10.566;2023-03-04T13:59:10;7.28;;;1.83;;
76852;SDS011;65825;52.232;10.566;2023-03-04T14:06:52;5.25;;;1.67;;
76852;SDS011;65825;52.232;10.566;2023-03-04T14:09:20;6.00;;;2.08;;
76852;SDS011;65825;52.232;10.566;2023-03-04T14:11:57;5.65;;;1.80;;
76852;SDS011;65825;52.232;10.566;2023-03-04T14:14:27;13.45;;;1.85;;
76852;SDS011;65825;52.232;10.566;2023-03-04T14:16:56;9.73;;;1.80;;
76852;SDS011;65825;52.232;10.566;2023-03-04T14:21:51;8.25;;;2.42;;
76852;SDS011;65825;52.232;10.566;2023-03-04T14:24:17;7.72;;;2.60;;
76852;SDS011;65825;52.232;10.566;2023-03-04T14:26:44;9.10;;;2.20;;
76852;SDS011;65825;52.232;10.566;2023-03-04T14:31:50;7.43;;;2.15;;
76852;SDS011;65825;52.232;10.566;2023-03-04T14:34:20;9.27;;;2.47;;
76852;SDS011;65825;52.232;10.566;2023-03-04T14:39:15;10.98;;;1.80;;
76852;SDS011;65825;52.232;10.566;2023-03-04T14:41:42;8.18;;;1.65;;
76852;SDS011;65825;52.232;10.566;2023-03-04T14:49:59;6.00;;;1.60;;
76852;SDS011;65825;52.232;10.566;2023-03-04T14:52:32;9.00;;;1.80;;
76852;SDS011;65825;52.232;10.566;2023-03-04T14:54:59;8.63;;;2.00;;
76852;SDS011;65825;52.232;10.566;2023-03-04T14:57:27;9.15;;;2.13;;
76852;SDS011;65825;52.232;10.566;2023-03-04T15:00:12;8.00;;;1.65;;
76852;SDS011;65825;52.232;10.566;2023-03-04T15:02:40;10.23;;;1.83;;
76852;SDS011;65825;52.232;10.566;2023-03-04T15:05:07;8.50;;;2.05;;
76852;SDS011;65825;52.232;10.566;2023-03-04T15:07:35;11.77;;;2.80;;
76852;SDS011;65825;52.232;10.566;2023-03-04T15:10:07;17.17;;;3.47;;
76852;SDS011;65825;52.232;10.566;2023-03-04T15:12:38;10.82;;;2.95;;
76852;SDS011;65825;52.232;10.566;2023-03-04T15:15:28;11.27;;;2.17;;
76852;SDS011;65825;52.232;10.566;2023-03-04T15:17:58;6.32;;;2.25;;
76852;SDS011;65825;52.232;10.566;2023-03-04T15:20:25;14.27;;;2.42;;
76852;SDS011;65825;52.232;10.566;2023-03-04T15:25:17;10.37;;;2.10;;
76852;SDS011;65825;52.232;10.566;2023-03-04T15:27:43;8.40;;;1.98;;
76852;SDS011;65825;52.232;10.566;2023-03-04T15:30:26;9.05;;;1.95;;
76852;SDS011;65825;52.232;10.566;2023-03-04T15:32:55;10.57;;;1.80;;
76852;SDS011;65825;52.232;10.566;2023-03-04T15:35:22;5.70;;;1.88;;
76852;SDS011;65825;52.232;10.566;2023-03-04T15:37:49;9.13;;;2.30;;
76852;SDS011;65825;52.232;10.566;2023-03-04T15:40:29;11.30;;;2.08;;
76852;SDS011;65825;52.232;10.566;2023-03-04T15:42:56;11.35;;;2.13;;
76852;SDS011;65825;52.232;10.566;2023-03-04T15:45:24;8.55;;;1.88;;
76852;SDS011;65825;52.232;10.566;2023-03-04T15:47:54;8.75;;;1.92;;
76852;SDS011;65825;52.232;10.566;2023-03-04T15:50:20;8.93;;;2.22;;
76852;SDS011;65825;52.232;10.566;2023-03-04T15:52:46;8.10;;;2.25;;
76852;SDS011;65825;52.232;10.566;2023-03-04T15:55:15;13.60;;;2.35;;
76852;SDS011;65825;52.232;10.566;2023-03-04T15:57:44;13.77;;;2.20;;
76852;SDS011;65825;52.232;10.566;2023-03-04T16:00:11;13.63;;;2.35;;
76852;SDS011;65825;52.232;10.566;2023-03-04T16:05:03;11.48;;;2.38;;
76852;SDS011;65825;52.232;10.566;2023-03-04T16:07:29;7.32;;;2.30;;
76852;SDS011;65825;52.232;10.566;2023-03-04T16:09:56;8.13;;;2.17;;
76852;SDS011;65825;52.232;10.566;2023-03-04T16:12:26;13.25;;;2.22;;
76852;SDS011;65825;52.232;10.566;2023-03-04T16:14:52;15.32;;;2.00;;
76852;SDS011;65825;52.232;10.566;2023-03-04T16:17:17;13.75;;;2.63;;
76852;SDS011;65825;52.232;10.566;2023-03-04T16:19:43;12.27;;;2.63;;
76852;SDS011;65825;52.232;10.566;2023-03-04T16:22:14;12.98;;;2.10;;
76852;SDS011;65825;52.232;10.566;2023-03-04T16:24:43;10.05;;;2.53;;
76852;SDS011;65825;52.232;10.566;2023-03-04T16:27:18;13.53;;;2.60;;
76852;SDS011;65825;52.232;10.566;2023-03-04T16:29:44;13.02;;;3.35;;